»·PEaware :: DAL4243 KSFO-KSNA

DAL4243 :: KSFO-KSNA

FLIGHT INFORMATION

Flight Status: Arrived
Operator:
Delta Air Lines
More flights by this operator :: More flights under this callsign
Pilot: Sean B. (13609)
Aircraft: BOEING 757-200
(B752)
More flights by this aircraft type
Origin: KSFO San Francisco Intl
United States
Destination: KSNA John Wayne-Orange Co
United States
More flights between these airports :: More routes between these airports
Route: SAHEY3 CISKO FLW TANDY4
File this flight plan on PilotEdge
Remarks:
Altitude:
(Current/Filed)
31,000ft
Speed:
(Current/Filed)
430kts
Departed: 10-Jan-17 08:46 AM
Arrived: 10-Jan-17 10:01 AM
Distance/Time
Traveled:
323nm/1:15
Distance/Time
To Go:
Arrived

Flight Plot

Page will automatically refresh every two minutes.


Map Options




Map Legend


Flown Route
Filed Route
Departure Airport
Arrival Airport
Navaid (VOR, NDB)
Fix

Horizontal Profiles

Position Reports

Time Latitude Longitude Heading Altitude Ground
Speed
10-Jan-17 08:05 37.614307 -122.382761 27 34ft 0kts
10-Jan-17 08:06 37.614307 -122.382761 27 34ft 0kts
10-Jan-17 08:07 37.614307 -122.382761 27 34ft 0kts
10-Jan-17 08:08 37.614307 -122.382761 27 34ft 0kts
10-Jan-17 08:09 37.614307 -122.382761 27 34ft 0kts
10-Jan-17 08:10 37.614307 -122.382761 27 34ft 0kts
10-Jan-17 08:11 37.614307 -122.382761 27 34ft 0kts
10-Jan-17 08:12 37.614307 -122.382761 27 34ft 0kts
10-Jan-17 08:13 37.614307 -122.382761 27 34ft 0kts
10-Jan-17 08:14 37.614307 -122.382761 27 34ft 0kts
10-Jan-17 08:15 37.614307 -122.382761 27 34ft 0kts
10-Jan-17 08:16 37.614307 -122.382761 27 34ft 0kts
10-Jan-17 08:17 37.614307 -122.382761 27 34ft 0kts
10-Jan-17 08:18 37.614307 -122.382761 27 34ft 0kts
10-Jan-17 08:19 37.614307 -122.382761 27 34ft 0kts
10-Jan-17 08:20 37.614307 -122.382761 27 34ft 0kts
10-Jan-17 08:21 37.614307 -122.382761 27 34ft 0kts
10-Jan-17 08:22 37.614307 -122.382761 27 34ft 0kts
10-Jan-17 08:23 37.614307 -122.382761 27 34ft 0kts
10-Jan-17 08:24 37.614307 -122.382761 27 34ft 0kts
10-Jan-17 08:25 37.614307 -122.382761 27 34ft 0kts
10-Jan-17 08:26 37.614307 -122.382761 27 34ft 0kts
10-Jan-17 08:27 37.614307 -122.382761 27 34ft 0kts
10-Jan-17 08:28 37.614307 -122.382761 27 34ft 0kts
10-Jan-17 08:29 37.614307 -122.382761 27 34ft 0kts
10-Jan-17 08:30 37.614307 -122.382761 27 34ft 0kts
10-Jan-17 08:31 37.614307 -122.382761 27 34ft 0kts
10-Jan-17 08:32 37.614307 -122.382761 27 34ft 0kts
10-Jan-17 08:33 37.613943 -122.382995 40 34ft 1kts
10-Jan-17 08:34 37.613899 -122.383271 119 34ft 0kts
10-Jan-17 08:35 37.613899 -122.383271 119 34ft 0kts
10-Jan-17 08:36 37.613899 -122.383271 119 34ft 0kts
10-Jan-17 08:37 37.613899 -122.383271 119 35ft 0kts
10-Jan-17 08:38 37.613674 -122.382718 118 34ft 0kts
10-Jan-17 08:39 37.614161 -122.381281 29 34ft 8kts
10-Jan-17 08:40 37.617135 -122.379458 6 33ft 12kts
10-Jan-17 08:41 37.619380 -122.379670 44 34ft 9kts
10-Jan-17 08:42 37.621691 -122.376416 48 27ft 14kts
10-Jan-17 08:43 37.624857 -122.373639 28 18ft 14kts
10-Jan-17 08:44 37.626827 -122.372071 84 15ft 10kts
10-Jan-17 08:45 37.626768 -122.371668 109 15ft 4kts
10-Jan-17 08:46 37.624287 -122.372074 207 17ft 66kts
10-Jan-17 08:47 37.597730 -122.386118 175 1398ft 155kts
10-Jan-17 08:48 37.583105 -122.342682 89 2905ft 245kts
10-Jan-17 08:49 37.576501 -122.282101 112 5180ft 264kts
10-Jan-17 08:50 37.548882 -122.225453 142 7647ft 271kts
10-Jan-17 08:51 37.507962 -122.177304 144 10066ft 286kts
10-Jan-17 08:52 37.465051 -122.130057 147 11169ft 340kts
10-Jan-17 08:53 37.407394 -122.069617 145 12776ft 388kts
10-Jan-17 08:54 37.353396 -122.013826 148 14768ft 403kts
10-Jan-17 08:55 37.298121 -121.964664 151 16520ft 414kts
10-Jan-17 08:56 37.226777 -121.901909 151 18535ft 428kts
10-Jan-17 08:57 37.150079 -121.835292 152 20488ft 441kts
10-Jan-17 08:58 37.071880 -121.766766 152 22263ft 453kts
10-Jan-17 08:59 36.989771 -121.694594 152 23899ft 465kts
10-Jan-17 09:00 36.898432 -121.613626 152 25449ft 479kts
10-Jan-17 09:01 36.805778 -121.531207 152 26854ft 492kts
10-Jan-17 09:02 36.710415 -121.447734 152 28092ft 505kts
10-Jan-17 09:03 36.615338 -121.365591 153 29755ft 502kts
10-Jan-17 09:04 36.524440 -121.286250 154 31084ft 502kts
10-Jan-17 09:05 36.436043 -121.210333 154 31097ft 497kts
10-Jan-17 09:06 36.337112 -121.120296 150 31102ft 504kts
10-Jan-17 09:07 36.247034 -121.030534 149 31098ft 506kts
10-Jan-17 09:08 36.165652 -120.947722 148 31147ft 504kts
10-Jan-17 09:09 36.072155 -120.852473 148 31149ft 504kts
10-Jan-17 09:10 35.984850 -120.763744 148 31150ft 504kts
10-Jan-17 09:11 35.897577 -120.675305 148 31153ft 504kts
10-Jan-17 09:12 35.816327 -120.593215 148 31155ft 504kts
10-Jan-17 09:13 35.734939 -120.511216 148 31153ft 504kts
10-Jan-17 09:14 35.651894 -120.425811 147 31156ft 504kts
10-Jan-17 09:15 35.572232 -120.342568 148 31152ft 503kts
10-Jan-17 09:16 35.481021 -120.251266 148 31141ft 503kts
10-Jan-17 09:17 35.394421 -120.164543 149 31172ft 503kts
10-Jan-17 09:18 35.312786 -120.083724 149 31171ft 502kts
10-Jan-17 09:19 35.232349 -120.004149 148 31178ft 502kts
10-Jan-17 09:20 35.151374 -119.924289 148 31184ft 502kts
10-Jan-17 09:21 35.071509 -119.844571 146 31189ft 504kts
10-Jan-17 09:22 34.988881 -119.756538 146 31201ft 505kts
10-Jan-17 09:23 34.908746 -119.671653 146 31207ft 505kts
10-Jan-17 09:24 34.833047 -119.591784 146 31203ft 506kts
10-Jan-17 09:25 34.753782 -119.508379 146 31200ft 506kts
10-Jan-17 09:26 34.674846 -119.425547 146 30453ft 507kts
10-Jan-17 09:27 34.600022 -119.347957 147 29346ft 502kts
10-Jan-17 09:28 34.523254 -119.267757 147 28105ft 494kts
10-Jan-17 09:29 34.451036 -119.195048 147 26786ft 483kts
10-Jan-17 09:30 34.370834 -119.114619 147 25047ft 478kts
10-Jan-17 09:31 34.295357 -119.036997 146 23209ft 476kts
10-Jan-17 09:32 34.221603 -118.960816 146 21918ft 464kts
10-Jan-17 09:33 34.150318 -118.887200 146 20895ft 434kts
10-Jan-17 09:34 34.082477 -118.817437 146 18377ft 419kts
10-Jan-17 09:35 34.020019 -118.766708 165 16337ft 390kts
10-Jan-17 09:36 33.942718 -118.733059 168 14855ft 382kts
10-Jan-17 09:37 33.869155 -118.704703 170 13991ft 365kts
10-Jan-17 09:38 33.796090 -118.677602 170 13131ft 367kts
10-Jan-17 09:39 33.721898 -118.650779 170 12340ft 367kts
10-Jan-17 09:40 33.642092 -118.612103 143 11576ft 366kts
10-Jan-17 09:41 33.609624 -118.533425 94 11635ft 388kts
10-Jan-17 09:42 33.626980 -118.441534 67 11131ft 382kts
10-Jan-17 09:43 33.635711 -118.348158 96 10299ft 372kts
10-Jan-17 09:44 33.624822 -118.250915 101 9840ft 318kts
10-Jan-17 09:45 33.612804 -118.167181 101 9026ft 316kts
10-Jan-17 09:46 33.617929 -118.095663 49 8134ft 306kts
10-Jan-17 09:47 33.668973 -118.056884 19 7049ft 280kts
10-Jan-17 09:48 33.722559 -118.024458 19 6019ft 261kts
10-Jan-17 09:49 33.782575 -117.990539 31 5099ft 289kts
10-Jan-17 09:50 33.821399 -117.960778 31 4597ft 285kts
10-Jan-17 09:51 33.887552 -117.909275 41 3718ft 278kts
10-Jan-17 09:52 33.921080 -117.869606 73 3185ft 252kts
10-Jan-17 09:53 33.909128 -117.792275 111 3001ft 229kts
10-Jan-17 09:54 33.886716 -117.734717 147 2973ft 250kts
10-Jan-17 09:55 33.837274 -117.751583 223 3024ft 238kts
10-Jan-17 09:56 33.806551 -117.790747 203 2803ft 257kts
10-Jan-17 09:57 33.759151 -117.816062 206 1832ft 223kts
10-Jan-17 09:58 33.720097 -117.840840 206 914ft 140kts
10-Jan-17 09:59 33.695025 -117.856686 209 362ft 142kts
10-Jan-17 10:00 33.673094 -117.870490 207 68ft 52kts
10-Jan-17 10:01 33.669595 -117.870484 44 67ft 11kts
10-Jan-17 10:02 33.670848 -117.869182 40 67ft 11kts
10-Jan-17 10:03 33.672863 -117.867546 44 67ft 7kts
10-Jan-17 10:04 33.674400 -117.866285 28 68ft 13kts
10-Jan-17 10:05 33.676445 -117.864997 27 67ft 10kts
10-Jan-17 10:06 33.677275 -117.863891 117 67ft 5kts
10-Jan-17 10:07 33.677220 -117.863757 115 67ft 0kts
10-Jan-17 10:08 33.677220 -117.863757 115 67ft 0kts
10-Jan-17 10:09 33.677220 -117.863757 115 67ft 0kts
10-Jan-17 10:10 33.677220 -117.863757 115 68ft 0kts

Navigation Log

Ident Type
1. KSFO Airport
2. ORYAN Fix
3. SAHEY Fix
4. MAAYS Fix
5. MCOVY Fix
6. KTINA Fix
7. CISKO Fix
8. FLW Navaid
9. SADDE Fix
10. PAROL Fix
11. SXC Navaid
12. ALBAS Fix
13. SLI Navaid
14. KSNA Airport